sensor_id;sensor_type;location;lat;lon;timestamp;P1;durP1;ratioP1;P2;durP2;ratioP2
35990;SDS011;22064;42.672;23.282;2022-12-29T00:01:15;64.05;;;34.33;;
35990;SDS011;22064;42.672;23.282;2022-12-29T00:03:59;62.47;;;33.40;;
35990;SDS011;22064;42.672;23.282;2022-12-29T00:06:44;64.15;;;33.97;;
35990;SDS011;22064;42.672;23.282;2022-12-29T00:09:28;64.47;;;34.25;;
35990;SDS011;22064;42.672;23.282;2022-12-29T00:12:12;60.28;;;33.63;;
35990;SDS011;22064;42.672;23.282;2022-12-29T00:14:56;61.00;;;33.92;;
35990;SDS011;22064;42.672;23.282;2022-12-29T00:17:59;65.00;;;33.35;;
35990;SDS011;22064;42.672;23.282;2022-12-29T00:20:43;61.50;;;33.03;;
35990;SDS011;22064;42.672;23.282;2022-12-29T00:23:47;62.45;;;34.95;;
35990;SDS011;22064;42.672;23.282;2022-12-29T00:26:53;61.55;;;32.42;;
35990;SDS011;22064;42.672;23.282;2022-12-29T00:30:09;61.05;;;33.17;;
35990;SDS011;22064;42.672;23.282;2022-12-29T00:36:23;66.70;;;36.53;;
35990;SDS011;22064;42.672;23.282;2022-12-29T00:39:12;67.75;;;39.05;;
35990;SDS011;22064;42.672;23.282;2022-12-29T00:42:18;88.32;;;47.65;;
35990;SDS011;22064;42.672;23.282;2022-12-29T00:45:22;87.40;;;48.90;;
35990;SDS011;22064;42.672;23.282;2022-12-29T00:48:06;78.00;;;42.65;;
35990;SDS011;22064;42.672;23.282;2022-12-29T00:50:50;70.82;;;38.05;;
35990;SDS011;22064;42.672;23.282;2022-12-29T00:53:40;68.68;;;37.85;;
35990;SDS011;22064;42.672;23.282;2022-12-29T00:56:24;72.93;;;39.83;;
35990;SDS011;22064;42.672;23.282;2022-12-29T00:59:09;64.95;;;35.55;;
35990;SDS011;22064;42.672;23.282;2022-12-29T01:01:54;66.50;;;35.85;;
35990;SDS011;22064;42.672;23.282;2022-12-29T01:04:39;66.15;;;36.83;;
35990;SDS011;22064;42.672;23.282;2022-12-29T01:07:23;73.20;;;38.55;;
35990;SDS011;22064;42.672;23.282;2022-12-29T01:10:07;75.47;;;39.28;;
35990;SDS011;22064;42.672;23.282;2022-12-29T01:12:55;72.88;;;39.22;;
35990;SDS011;22064;42.672;23.282;2022-12-29T01:15:39;73.55;;;39.08;;
35990;SDS011;22064;42.672;23.282;2022-12-29T01:18:23;81.60;;;41.00;;
35990;SDS011;22064;42.672;23.282;2022-12-29T01:21:09;71.22;;;37.63;;
35990;SDS011;22064;42.672;23.282;2022-12-29T01:23:53;66.35;;;37.17;;
35990;SDS011;22064;42.672;23.282;2022-12-29T01:26:37;70.35;;;36.90;;
35990;SDS011;22064;42.672;23.282;2022-12-29T01:29:22;70.60;;;36.33;;
35990;SDS011;22064;42.672;23.282;2022-12-29T01:32:06;71.30;;;37.10;;
35990;SDS011;22064;42.672;23.282;2022-12-29T01:34:50;66.35;;;35.08;;
35990;SDS011;22064;42.672;23.282;2022-12-29T01:37:34;67.47;;;34.78;;
35990;SDS011;22064;42.672;23.282;2022-12-29T01:40:19;73.65;;;37.85;;
35990;SDS011;22064;42.672;23.282;2022-12-29T01:43:04;66.50;;;35.80;;
35990;SDS011;22064;42.672;23.282;2022-12-29T01:45:51;67.45;;;35.90;;
35990;SDS011;22064;42.672;23.282;2022-12-29T01:48:38;58.42;;;31.52;;
35990;SDS011;22064;42.672;23.282;2022-12-29T01:51:23;61.38;;;31.63;;
35990;SDS011;22064;42.672;23.282;2022-12-29T01:54:10;55.53;;;29.75;;
35990;SDS011;22064;42.672;23.282;2022-12-29T01:57:01;58.60;;;31.30;;
35990;SDS011;22064;42.672;23.282;2022-12-29T01:59:50;61.47;;;32.80;;
35990;SDS011;22064;42.672;23.282;2022-12-29T02:02:45;62.42;;;33.33;;
35990;SDS011;22064;42.672;23.282;2022-12-29T02:08:20;62.03;;;32.17;;
35990;SDS011;22064;42.672;23.282;2022-12-29T02:11:07;63.67;;;33.17;;
35990;SDS011;22064;42.672;23.282;2022-12-29T02:13:52;54.55;;;29.23;;
35990;SDS011;22064;42.672;23.282;2022-12-29T02:35:09;64.68;;;31.27;;
35990;SDS011;22064;42.672;23.282;2022-12-29T02:44:12;60.13;;;31.83;;
35990;SDS011;22064;42.672;23.282;2022-12-29T02:53:00;64.43;;;33.22;;
35990;SDS011;22064;42.672;23.282;2022-12-29T02:58:33;63.03;;;31.45;;
35990;SDS011;22064;42.672;23.282;2022-12-29T03:10:04;54.92;;;31.30;;
35990;SDS011;22064;42.672;23.282;2022-12-29T03:13:06;58.22;;;31.00;;
35990;SDS011;22064;42.672;23.282;2022-12-29T03:16:24;62.13;;;31.15;;
35990;SDS011;22064;42.672;23.282;2022-12-29T03:19:21;63.85;;;32.42;;
35990;SDS011;22064;42.672;23.282;2022-12-29T03:22:11;61.15;;;32.95;;
35990;SDS011;22064;42.672;23.282;2022-12-29T03:25:25;58.47;;;31.02;;
35990;SDS011;22064;42.672;23.282;2022-12-29T03:28:22;62.95;;;33.63;;
35990;SDS011;22064;42.672;23.282;2022-12-29T03:31:09;60.88;;;31.88;;
35990;SDS011;22064;42.672;23.282;2022-12-29T03:33:57;63.75;;;34.85;;
35990;SDS011;22064;42.672;23.282;2022-12-29T03:36:44;64.05;;;34.05;;
35990;SDS011;22064;42.672;23.282;2022-12-29T03:39:45;63.78;;;33.45;;
35990;SDS011;22064;42.672;23.282;2022-12-29T03:42:30;62.38;;;32.92;;
35990;SDS011;22064;42.672;23.282;2022-12-29T03:45:18;60.40;;;33.17;;
35990;SDS011;22064;42.672;23.282;2022-12-29T03:48:02;69.10;;;36.33;;
35990;SDS011;22064;42.672;23.282;2022-12-29T03:50:48;71.20;;;37.20;;
35990;SDS011;22064;42.672;23.282;2022-12-29T03:53:32;68.25;;;37.58;;
35990;SDS011;22064;42.672;23.282;2022-12-29T03:56:18;68.82;;;38.05;;
35990;SDS011;22064;42.672;23.282;2022-12-29T03:59:02;71.00;;;39.22;;
35990;SDS011;22064;42.672;23.282;2022-12-29T04:01:49;71.05;;;39.40;;
35990;SDS011;22064;42.672;23.282;2022-12-29T04:04:34;72.30;;;38.83;;
35990;SDS011;22064;42.672;23.282;2022-12-29T04:07:18;70.60;;;37.33;;
35990;SDS011;22064;42.672;23.282;2022-12-29T04:10:02;70.80;;;36.78;;
35990;SDS011;22064;42.672;23.282;2022-12-29T04:12:49;69.45;;;36.10;;
35990;SDS011;22064;42.672;23.282;2022-12-29T04:15:33;69.68;;;37.33;;
35990;SDS011;22064;42.672;23.282;2022-12-29T04:18:17;73.80;;;36.67;;
35990;SDS011;22064;42.672;23.282;2022-12-29T04:21:03;72.15;;;37.97;;
35990;SDS011;22064;42.672;23.282;2022-12-29T04:23:50;74.85;;;38.45;;
35990;SDS011;22064;42.672;23.282;2022-12-29T04:26:34;71.88;;;38.83;;
35990;SDS011;22064;42.672;23.282;2022-12-29T04:29:38;75.20;;;39.47;;
35990;SDS011;22064;42.672;23.282;2022-12-29T04:32:42;73.53;;;37.15;;
35990;SDS011;22064;42.672;23.282;2022-12-29T04:35:27;69.00;;;37.17;;
35990;SDS011;22064;42.672;23.282;2022-12-29T04:38:11;75.03;;;39.33;;
35990;SDS011;22064;42.672;23.282;2022-12-29T04:40:55;75.75;;;38.45;;
35990;SDS011;22064;42.672;23.282;2022-12-29T04:43:42;76.47;;;38.67;;
35990;SDS011;22064;42.672;23.282;2022-12-29T04:46:49;78.25;;;40.95;;
35990;SDS011;22064;42.672;23.282;2022-12-29T04:49:51;81.55;;;43.03;;
35990;SDS011;22064;42.672;23.282;2022-12-29T04:52:52;77.93;;;41.42;;
35990;SDS011;22064;42.672;23.282;2022-12-29T04:55:36;77.88;;;39.85;;
35990;SDS011;22064;42.672;23.282;2022-12-29T04:58:20;80.13;;;41.03;;
35990;SDS011;22064;42.672;23.282;2022-12-29T05:01:05;79.40;;;41.47;;
35990;SDS011;22064;42.672;23.282;2022-12-29T05:03:50;79.47;;;41.13;;
35990;SDS011;22064;42.672;23.282;2022-12-29T05:06:35;78.15;;;40.92;;
35990;SDS011;22064;42.672;23.282;2022-12-29T05:09:19;74.97;;;40.85;;
35990;SDS011;22064;42.672;23.282;2022-12-29T05:12:04;74.30;;;39.17;;
35990;SDS011;22064;42.672;23.282;2022-12-29T05:14:50;72.80;;;36.97;;
35990;SDS011;22064;42.672;23.282;2022-12-29T05:17:35;75.75;;;39.25;;
35990;SDS011;22064;42.672;23.282;2022-12-29T05:20:20;71.75;;;37.10;;
35990;SDS011;22064;42.672;23.282;2022-12-29T05:23:04;74.00;;;37.67;;
35990;SDS011;22064;42.672;23.282;2022-12-29T05:25:49;72.35;;;38.72;;
35990;SDS011;22064;42.672;23.282;2022-12-29T05:28:36;76.60;;;40.42;;
35990;SDS011;22064;42.672;23.282;2022-12-29T05:31:29;73.75;;;38.35;;
35990;SDS011;22064;42.672;23.282;2022-12-29T05:34:13;77.53;;;39.38;;
35990;SDS011;22064;42.672;23.282;2022-12-29T05:36:58;73.72;;;38.65;;
35990;SDS011;22064;42.672;23.282;2022-12-29T05:39:42;72.90;;;39.38;;
35990;SDS011;22064;42.672;23.282;2022-12-29T05:42:27;68.63;;;37.03;;
35990;SDS011;22064;42.672;23.282;2022-12-29T05:45:26;74.57;;;39.30;;
35990;SDS011;22064;42.672;23.282;2022-12-29T05:48:15;74.18;;;38.60;;
35990;SDS011;22064;42.672;23.282;2022-12-29T05:51:18;69.25;;;38.30;;
35990;SDS011;22064;42.672;23.282;2022-12-29T05:54:09;75.40;;;38.45;;
35990;SDS011;22064;42.672;23.282;2022-12-29T05:56:53;71.25;;;36.45;;
35990;SDS011;22064;42.672;23.282;2022-12-29T05:59:38;78.47;;;39.58;;
35990;SDS011;22064;42.672;23.282;2022-12-29T06:02:23;72.75;;;37.63;;
35990;SDS011;22064;42.672;23.282;2022-12-29T06:05:07;72.32;;;36.83;;
35990;SDS011;22064;42.672;23.282;2022-12-29T06:07:53;72.20;;;38.97;;
35990;SDS011;22064;42.672;23.282;2022-12-29T06:10:37;68.70;;;36.33;;
35990;SDS011;22064;42.672;23.282;2022-12-29T06:13:23;66.10;;;35.45;;
35990;SDS011;22064;42.672;23.282;2022-12-29T06:16:07;66.78;;;35.85;;
35990;SDS011;22064;42.672;23.282;2022-12-29T06:18:53;68.65;;;36.25;;
35990;SDS011;22064;42.672;23.282;2022-12-29T06:21:37;70.30;;;37.45;;
35990;SDS011;22064;42.672;23.282;2022-12-29T06:24:22;69.22;;;37.45;;
35990;SDS011;22064;42.672;23.282;2022-12-29T06:27:06;65.75;;;36.92;;
35990;SDS011;22064;42.672;23.282;2022-12-29T06:29:50;72.38;;;36.03;;
35990;SDS011;22064;42.672;23.282;2022-12-29T06:32:34;68.70;;;37.25;;
35990;SDS011;22064;42.672;23.282;2022-12-29T06:35:22;72.40;;;37.67;;
35990;SDS011;22064;42.672;23.282;2022-12-29T06:38:08;71.03;;;37.42;;
35990;SDS011;22064;42.672;23.282;2022-12-29T06:40:53;77.55;;;39.85;;
35990;SDS011;22064;42.672;23.282;2022-12-29T06:43:37;73.07;;;37.58;;
35990;SDS011;22064;42.672;23.282;2022-12-29T06:46:37;64.70;;;33.50;;
35990;SDS011;22064;42.672;23.282;2022-12-29T06:49:21;68.20;;;34.80;;
35990;SDS011;22064;42.672;23.282;2022-12-29T06:52:05;73.97;;;36.53;;
35990;SDS011;22064;42.672;23.282;2022-12-29T06:54:50;68.35;;;35.75;;
35990;SDS011;22064;42.672;23.282;2022-12-29T06:57:34;61.85;;;33.88;;
35990;SDS011;22064;42.672;23.282;2022-12-29T07:00:18;68.30;;;36.58;;
35990;SDS011;22064;42.672;23.282;2022-12-29T07:03:02;69.15;;;36.90;;
35990;SDS011;22064;42.672;23.282;2022-12-29T07:05:47;65.20;;;34.30;;
35990;SDS011;22064;42.672;23.282;2022-12-29T07:08:31;66.07;;;33.83;;
35990;SDS011;22064;42.672;23.282;2022-12-29T07:11:15;64.70;;;34.88;;
35990;SDS011;22064;42.672;23.282;2022-12-29T07:14:00;66.53;;;33.58;;
35990;SDS011;22064;42.672;23.282;2022-12-29T07:16:45;54.88;;;30.55;;
35990;SDS011;22064;42.672;23.282;2022-12-29T07:19:29;54.08;;;30.42;;
35990;SDS011;22064;42.672;23.282;2022-12-29T07:22:13;58.58;;;33.30;;
35990;SDS011;22064;42.672;23.282;2022-12-29T07:24:57;63.40;;;34.90;;
35990;SDS011;22064;42.672;23.282;2022-12-29T07:27:41;67.18;;;38.03;;
35990;SDS011;22064;42.672;23.282;2022-12-29T07:30:25;67.53;;;36.95;;
35990;SDS011;22064;42.672;23.282;2022-12-29T07:33:09;70.53;;;36.97;;
35990;SDS011;22064;42.672;23.282;2022-12-29T07:35:54;59.30;;;33.15;;
35990;SDS011;22064;42.672;23.282;2022-12-29T07:38:38;57.40;;;32.28;;
35990;SDS011;22064;42.672;23.282;2022-12-29T07:41:22;59.55;;;32.53;;
35990;SDS011;22064;42.672;23.282;2022-12-29T07:44:08;57.28;;;29.85;;
35990;SDS011;22064;42.672;23.282;2022-12-29T07:47:11;58.67;;;31.50;;
35990;SDS011;22064;42.672;23.282;2022-12-29T07:49:55;63.13;;;33.13;;
35990;SDS011;22064;42.672;23.282;2022-12-29T07:52:39;57.05;;;30.65;;
35990;SDS011;22064;42.672;23.282;2022-12-29T07:55:23;57.03;;;31.30;;
35990;SDS011;22064;42.672;23.282;2022-12-29T07:58:08;58.88;;;30.33;;
35990;SDS011;22064;42.672;23.282;2022-12-29T08:00:53;56.63;;;31.02;;
35990;SDS011;22064;42.672;23.282;2022-12-29T08:03:37;55.60;;;31.05;;
35990;SDS011;22064;42.672;23.282;2022-12-29T08:06:25;54.05;;;29.38;;
35990;SDS011;22064;42.672;23.282;2022-12-29T08:09:09;53.45;;;28.13;;
35990;SDS011;22064;42.672;23.282;2022-12-29T08:11:54;61.65;;;32.38;;
35990;SDS011;22064;42.672;23.282;2022-12-29T08:14:38;57.17;;;32.83;;
35990;SDS011;22064;42.672;23.282;2022-12-29T08:17:22;58.25;;;33.25;;
35990;SDS011;22064;42.672;23.282;2022-12-29T08:20:07;58.42;;;33.78;;
35990;SDS011;22064;42.672;23.282;2022-12-29T08:22:51;62.67;;;34.50;;
35990;SDS011;22064;42.672;23.282;2022-12-29T08:25:36;62.45;;;33.95;;
35990;SDS011;22064;42.672;23.282;2022-12-29T08:28:20;60.42;;;33.92;;
35990;SDS011;22064;42.672;23.282;2022-12-29T08:31:04;63.60;;;35.00;;
35990;SDS011;22064;42.672;23.282;2022-12-29T08:33:48;58.28;;;30.17;;
35990;SDS011;22064;42.672;23.282;2022-12-29T08:36:33;61.47;;;34.72;;
35990;SDS011;22064;42.672;23.282;2022-12-29T08:39:17;60.92;;;34.08;;
35990;SDS011;22064;42.672;23.282;2022-12-29T08:42:01;54.50;;;28.23;;
35990;SDS011;22064;42.672;23.282;2022-12-29T08:44:46;56.05;;;32.30;;
35990;SDS011;22064;42.672;23.282;2022-12-29T08:47:30;54.45;;;30.08;;
35990;SDS011;22064;42.672;23.282;2022-12-29T08:50:14;52.40;;;27.58;;
35990;SDS011;22064;42.672;23.282;2022-12-29T08:52:58;49.78;;;28.02;;
35990;SDS011;22064;42.672;23.282;2022-12-29T08:55:46;51.55;;;28.70;;
35990;SDS011;22064;42.672;23.282;2022-12-29T08:58:32;53.33;;;28.05;;
35990;SDS011;22064;42.672;23.282;2022-12-29T09:01:16;51.03;;;27.08;;
35990;SDS011;22064;42.672;23.282;2022-12-29T09:04:00;60.55;;;33.92;;
35990;SDS011;22064;42.672;23.282;2022-12-29T09:06:44;53.78;;;29.20;;
35990;SDS011;22064;42.672;23.282;2022-12-29T09:09:29;47.22;;;25.60;;
35990;SDS011;22064;42.672;23.282;2022-12-29T09:12:13;49.85;;;27.08;;
35990;SDS011;22064;42.672;23.282;2022-12-29T09:14:57;48.40;;;27.02;;
35990;SDS011;22064;42.672;23.282;2022-12-29T09:17:41;49.15;;;26.38;;
35990;SDS011;22064;42.672;23.282;2022-12-29T09:20:29;47.95;;;26.35;;
35990;SDS011;22064;42.672;23.282;2022-12-29T09:23:13;47.10;;;25.30;;
35990;SDS011;22064;42.672;23.282;2022-12-29T09:25:57;44.88;;;25.27;;
35990;SDS011;22064;42.672;23.282;2022-12-29T09:28:41;46.60;;;25.55;;
35990;SDS011;22064;42.672;23.282;2022-12-29T09:31:27;45.63;;;25.38;;
35990;SDS011;22064;42.672;23.282;2022-12-29T09:34:12;43.05;;;25.13;;
35990;SDS011;22064;42.672;23.282;2022-12-29T09:36:56;40.65;;;23.42;;
35990;SDS011;22064;42.672;23.282;2022-12-29T09:39:40;40.95;;;23.33;;
35990;SDS011;22064;42.672;23.282;2022-12-29T09:46:07;42.95;;;22.08;;
35990;SDS011;22064;42.672;23.282;2022-12-29T09:52:14;43.17;;;24.10;;
35990;SDS011;22064;42.672;23.282;2022-12-29T09:55:04;48.80;;;25.85;;
35990;SDS011;22064;42.672;23.282;2022-12-29T09:57:55;46.72;;;25.33;;
35990;SDS011;22064;42.672;23.282;2022-12-29T10:03:55;44.25;;;25.20;;
35990;SDS011;22064;42.672;23.282;2022-12-29T10:13:03;47.80;;;26.10;;
35990;SDS011;22064;42.672;23.282;2022-12-29T10:24:53;42.92;;;24.33;;
35990;SDS011;22064;42.672;23.282;2022-12-29T10:27:40;42.88;;;23.75;;
35990;SDS011;22064;42.672;23.282;2022-12-29T10:30:27;47.05;;;26.65;;
35990;SDS011;22064;42.672;23.282;2022-12-29T10:33:14;49.25;;;28.50;;
35990;SDS011;22064;42.672;23.282;2022-12-29T10:36:09;44.58;;;25.83;;
35990;SDS011;22064;42.672;23.282;2022-12-29T10:39:01;46.67;;;25.20;;
35990;SDS011;22064;42.672;23.282;2022-12-29T10:44:31;43.92;;;25.02;;
35990;SDS011;22064;42.672;23.282;2022-12-29T10:47:20;51.88;;;26.48;;
35990;SDS011;22064;42.672;23.282;2022-12-29T10:52:57;49.17;;;25.83;;
35990;SDS011;22064;42.672;23.282;2022-12-29T10:55:46;46.03;;;25.65;;
35990;SDS011;22064;42.672;23.282;2022-12-29T10:58:31;47.45;;;26.65;;
35990;SDS011;22064;42.672;23.282;2022-12-29T11:01:16;46.10;;;26.25;;
35990;SDS011;22064;42.672;23.282;2022-12-29T11:04:03;46.25;;;25.83;;
35990;SDS011;22064;42.672;23.282;2022-12-29T11:06:59;45.70;;;26.20;;
35990;SDS011;22064;42.672;23.282;2022-12-29T11:09:45;49.10;;;25.90;;
35990;SDS011;22064;42.672;23.282;2022-12-29T11:12:30;49.88;;;26.38;;
35990;SDS011;22064;42.672;23.282;2022-12-29T11:15:15;44.03;;;25.88;;
35990;SDS011;22064;42.672;23.282;2022-12-29T11:18:00;45.50;;;26.50;;
35990;SDS011;22064;42.672;23.282;2022-12-29T11:20:44;49.38;;;26.83;;
35990;SDS011;22064;42.672;23.282;2022-12-29T11:23:29;51.92;;;26.80;;
35990;SDS011;22064;42.672;23.282;2022-12-29T11:26:21;47.33;;;26.42;;
35990;SDS011;22064;42.672;23.282;2022-12-29T11:29:17;46.67;;;25.52;;
35990;SDS011;22064;42.672;23.282;2022-12-29T11:32:12;46.30;;;26.92;;
35990;SDS011;22064;42.672;23.282;2022-12-29T11:35:05;44.22;;;24.90;;
35990;SDS011;22064;42.672;23.282;2022-12-29T11:37:53;43.85;;;24.52;;
35990;SDS011;22064;42.672;23.282;2022-12-29T11:40:42;47.58;;;26.40;;
35990;SDS011;22064;42.672;23.282;2022-12-29T11:43:30;48.13;;;25.55;;
35990;SDS011;22064;42.672;23.282;2022-12-29T11:46:18;48.85;;;27.48;;
35990;SDS011;22064;42.672;23.282;2022-12-29T11:51:56;47.15;;;24.70;;
35990;SDS011;22064;42.672;23.282;2022-12-29T11:54:40;44.70;;;24.20;;
35990;SDS011;22064;42.672;23.282;2022-12-29T11:57:26;42.83;;;23.92;;
35990;SDS011;22064;42.672;23.282;2022-12-29T12:00:19;45.35;;;25.48;;
35990;SDS011;22064;42.672;23.282;2022-12-29T12:03:12;44.08;;;24.80;;
35990;SDS011;22064;42.672;23.282;2022-12-29T12:06:02;46.10;;;25.85;;
35990;SDS011;22064;42.672;23.282;2022-12-29T12:08:58;45.40;;;25.83;;
35990;SDS011;22064;42.672;23.282;2022-12-29T12:11:48;43.90;;;23.70;;
35990;SDS011;22064;42.672;23.282;2022-12-29T12:14:40;41.17;;;23.65;;
35990;SDS011;22064;42.672;23.282;2022-12-29T12:21:04;43.33;;;25.15;;
35990;SDS011;22064;42.672;23.282;2022-12-29T12:26:48;42.38;;;23.88;;
35990;SDS011;22064;42.672;23.282;2022-12-29T12:29:45;44.85;;;23.77;;
35990;SDS011;22064;42.672;23.282;2022-12-29T12:32:41;44.95;;;24.15;;
35990;SDS011;22064;42.672;23.282;2022-12-29T12:35:36;47.28;;;23.42;;
35990;SDS011;22064;42.672;23.282;2022-12-29T12:41:39;43.83;;;22.58;;
35990;SDS011;22064;42.672;23.282;2022-12-29T12:44:50;43.97;;;22.85;;
35990;SDS011;22064;42.672;23.282;2022-12-29T12:47:53;40.58;;;22.75;;
35990;SDS011;22064;42.672;23.282;2022-12-29T13:00:03;40.85;;;22.10;;
35990;SDS011;22064;42.672;23.282;2022-12-29T13:18:02;39.35;;;22.33;;
35990;SDS011;22064;42.672;23.282;2022-12-29T13:21:02;38.47;;;20.83;;
35990;SDS011;22064;42.672;23.282;2022-12-29T13:30:15;41.65;;;21.42;;
35990;SDS011;22064;42.672;23.282;2022-12-29T13:33:24;39.83;;;20.40;;
35990;SDS011;22064;42.672;23.282;2022-12-29T13:39:11;37.75;;;21.50;;
35990;SDS011;22064;42.672;23.282;2022-12-29T13:42:01;38.28;;;20.33;;
35990;SDS011;22064;42.672;23.282;2022-12-29T13:45:06;39.03;;;21.27;;
35990;SDS011;22064;42.672;23.282;2022-12-29T13:48:00;35.72;;;21.05;;
35990;SDS011;22064;42.672;23.282;2022-12-29T13:50:55;41.30;;;21.00;;
35990;SDS011;22064;42.672;23.282;2022-12-29T13:56:45;38.10;;;21.13;;
35990;SDS011;22064;42.672;23.282;2022-12-29T13:59:55;39.20;;;20.40;;
35990;SDS011;22064;42.672;23.282;2022-12-29T14:05:46;42.40;;;22.88;;
35990;SDS011;22064;42.672;23.282;2022-12-29T14:08:48;39.33;;;21.80;;
35990;SDS011;22064;42.672;23.282;2022-12-29T14:11:36;41.47;;;21.77;;
35990;SDS011;22064;42.672;23.282;2022-12-29T14:14:25;40.95;;;21.42;;
35990;SDS011;22064;42.672;23.282;2022-12-29T14:17:16;42.00;;;22.48;;
35990;SDS011;22064;42.672;23.282;2022-12-29T14:20:04;39.50;;;21.15;;
35990;SDS011;22064;42.672;23.282;2022-12-29T14:28:48;40.28;;;22.20;;
35990;SDS011;22064;42.672;23.282;2022-12-29T14:31:33;37.58;;;21.10;;
35990;SDS011;22064;42.672;23.282;2022-12-29T14:37:17;52.40;;;29.10;;
35990;SDS011;22064;42.672;23.282;2022-12-29T14:43:12;50.13;;;27.25;;
35990;SDS011;22064;42.672;23.282;2022-12-29T14:46:02;50.00;;;27.67;;
35990;SDS011;22064;42.672;23.282;2022-12-29T14:48:46;63.83;;;33.53;;
35990;SDS011;22064;42.672;23.282;2022-12-29T14:51:31;63.72;;;34.20;;
35990;SDS011;22064;42.672;23.282;2022-12-29T15:00:29;90.07;;;54.78;;
35990;SDS011;22064;42.672;23.282;2022-12-29T15:06:08;98.28;;;57.80;;
35990;SDS011;22064;42.672;23.282;2022-12-29T15:11:56;88.95;;;50.45;;
35990;SDS011;22064;42.672;23.282;2022-12-29T15:14:49;74.65;;;44.47;;
35990;SDS011;22064;42.672;23.282;2022-12-29T15:17:38;75.57;;;47.22;;
35990;SDS011;22064;42.672;23.282;2022-12-29T15:20:30;87.38;;;50.78;;
35990;SDS011;22064;42.672;23.282;2022-12-29T15:23:15;92.60;;;49.92;;
35990;SDS011;22064;42.672;23.282;2022-12-29T15:26:02;83.22;;;50.13;;
35990;SDS011;22064;42.672;23.282;2022-12-29T15:28:52;87.93;;;50.33;;
35990;SDS011;22064;42.672;23.282;2022-12-29T15:31:45;89.28;;;49.72;;
35990;SDS011;22064;42.672;23.282;2022-12-29T15:34:32;87.18;;;50.92;;
35990;SDS011;22064;42.672;23.282;2022-12-29T15:37:17;90.85;;;49.65;;
35990;SDS011;22064;42.672;23.282;2022-12-29T15:40:04;91.80;;;52.90;;
35990;SDS011;22064;42.672;23.282;2022-12-29T15:42:58;80.30;;;46.15;;
35990;SDS011;22064;42.672;23.282;2022-12-29T15:46:05;87.88;;;49.25;;
35990;SDS011;22064;42.672;23.282;2022-12-29T15:48:49;86.15;;;47.15;;
35990;SDS011;22064;42.672;23.282;2022-12-29T15:51:37;85.35;;;46.47;;
35990;SDS011;22064;42.672;23.282;2022-12-29T15:54:23;83.43;;;47.75;;
35990;SDS011;22064;42.672;23.282;2022-12-29T15:57:43;82.43;;;45.45;;
35990;SDS011;22064;42.672;23.282;2022-12-29T16:00:27;80.18;;;43.33;;
35990;SDS011;22064;42.672;23.282;2022-12-29T16:03:13;77.00;;;43.35;;
35990;SDS011;22064;42.672;23.282;2022-12-29T16:09:17;75.40;;;44.33;;
35990;SDS011;22064;42.672;23.282;2022-12-29T16:12:05;84.00;;;45.58;;
35990;SDS011;22064;42.672;23.282;2022-12-29T16:15:02;81.88;;;45.55;;
35990;SDS011;22064;42.672;23.282;2022-12-29T16:17:50;82.43;;;44.92;;
35990;SDS011;22064;42.672;23.282;2022-12-29T16:20:39;86.38;;;46.58;;
35990;SDS011;22064;42.672;23.282;2022-12-29T16:23:26;85.85;;;45.03;;
35990;SDS011;22064;42.672;23.282;2022-12-29T16:26:19;83.63;;;45.08;;
35990;SDS011;22064;42.672;23.282;2022-12-29T16:29:06;84.88;;;43.85;;
35990;SDS011;22064;42.672;23.282;2022-12-29T16:31:55;83.03;;;43.28;;
35990;SDS011;22064;42.672;23.282;2022-12-29T16:34:46;86.45;;;44.85;;
35990;SDS011;22064;42.672;23.282;2022-12-29T16:37:31;84.28;;;43.78;;
35990;SDS011;22064;42.672;23.282;2022-12-29T16:43:03;92.80;;;48.88;;
35990;SDS011;22064;42.672;23.282;2022-12-29T16:51:28;88.07;;;45.92;;
35990;SDS011;22064;42.672;23.282;2022-12-29T16:54:19;87.30;;;44.58;;
35990;SDS011;22064;42.672;23.282;2022-12-29T16:57:07;91.22;;;47.47;;
35990;SDS011;22064;42.672;23.282;2022-12-29T16:59:53;92.32;;;46.30;;
35990;SDS011;22064;42.672;23.282;2022-12-29T17:02:43;84.25;;;45.10;;
35990;SDS011;22064;42.672;23.282;2022-12-29T17:05:29;89.88;;;47.03;;
35990;SDS011;22064;42.672;23.282;2022-12-29T17:08:18;84.90;;;45.30;;
35990;SDS011;22064;42.672;23.282;2022-12-29T17:11:08;87.68;;;46.75;;
35990;SDS011;22064;42.672;23.282;2022-12-29T17:17:35;97.82;;;48.00;;
35990;SDS011;22064;42.672;23.282;2022-12-29T17:20:24;91.28;;;46.78;;
35990;SDS011;22064;42.672;23.282;2022-12-29T17:25:57;102.68;;;50.85;;
35990;SDS011;22064;42.672;23.282;2022-12-29T17:28:42;99.38;;;50.00;;
35990;SDS011;22064;42.672;23.282;2022-12-29T17:31:29;102.32;;;51.05;;
35990;SDS011;22064;42.672;23.282;2022-12-29T17:34:14;94.78;;;49.22;;
35990;SDS011;22064;42.672;23.282;2022-12-29T17:36:59;105.10;;;51.92;;
35990;SDS011;22064;42.672;23.282;2022-12-29T17:39:43;107.38;;;53.55;;
35990;SDS011;22064;42.672;23.282;2022-12-29T17:42:27;103.45;;;52.33;;
35990;SDS011;22064;42.672;23.282;2022-12-29T17:45:13;101.70;;;52.70;;
35990;SDS011;22064;42.672;23.282;2022-12-29T17:48:04;97.22;;;53.53;;
35990;SDS011;22064;42.672;23.282;2022-12-29T17:50:54;109.00;;;55.42;;
35990;SDS011;22064;42.672;23.282;2022-12-29T17:53:40;103.05;;;55.53;;
35990;SDS011;22064;42.672;23.282;2022-12-29T17:56:24;108.82;;;55.30;;
35990;SDS011;22064;42.672;23.282;2022-12-29T17:59:11;104.18;;;52.75;;
35990;SDS011;22064;42.672;23.282;2022-12-29T18:01:59;105.97;;;53.40;;
35990;SDS011;22064;42.672;23.282;2022-12-29T18:04:43;110.00;;;55.22;;
35990;SDS011;22064;42.672;23.282;2022-12-29T18:07:28;103.45;;;52.53;;
35990;SDS011;22064;42.672;23.282;2022-12-29T18:10:13;98.78;;;51.58;;
35990;SDS011;22064;42.672;23.282;2022-12-29T18:12:58;103.03;;;52.30;;
35990;SDS011;22064;42.672;23.282;2022-12-29T18:15:43;104.35;;;54.75;;
35990;SDS011;22064;42.672;23.282;2022-12-29T18:18:27;94.43;;;50.42;;
35990;SDS011;22064;42.672;23.282;2022-12-29T18:21:21;96.50;;;51.38;;
35990;SDS011;22064;42.672;23.282;2022-12-29T18:24:09;101.13;;;50.28;;
35990;SDS011;22064;42.672;23.282;2022-12-29T18:26:57;88.88;;;46.97;;
35990;SDS011;22064;42.672;23.282;2022-12-29T18:29:42;88.15;;;48.75;;
35990;SDS011;22064;42.672;23.282;2022-12-29T18:32:26;93.15;;;50.92;;
35990;SDS011;22064;42.672;23.282;2022-12-29T18:35:15;94.63;;;49.13;;
35990;SDS011;22064;42.672;23.282;2022-12-29T18:38:09;89.88;;;46.60;;
35990;SDS011;22064;42.672;23.282;2022-12-29T18:40:53;92.05;;;48.38;;
35990;SDS011;22064;42.672;23.282;2022-12-29T18:43:38;103.88;;;54.92;;
35990;SDS011;22064;42.672;23.282;2022-12-29T18:46:22;105.20;;;56.40;;
35990;SDS011;22064;42.672;23.282;2022-12-29T18:49:07;159.15;;;88.18;;
35990;SDS011;22064;42.672;23.282;2022-12-29T18:51:51;172.25;;;95.45;;
35990;SDS011;22064;42.672;23.282;2022-12-29T18:54:37;162.52;;;93.18;;
35990;SDS011;22064;42.672;23.282;2022-12-29T18:57:21;156.88;;;85.45;;
35990;SDS011;22064;42.672;23.282;2022-12-29T19:00:06;173.07;;;98.57;;
35990;SDS011;22064;42.672;23.282;2022-12-29T19:02:51;175.93;;;99.10;;